sensor_id;sensor_type;location;lat;lon;timestamp;P1;durP1;ratioP1;P2;durP2;ratioP2
4835;SDS011;2432;51.226;6.904;2022-07-30T00:01:38;15.20;;;4.00;;
4835;SDS011;2432;51.226;6.904;2022-07-30T00:04:05;12.00;;;3.10;;
4835;SDS011;2432;51.226;6.904;2022-07-30T00:06:31;14.63;;;3.70;;
4835;SDS011;2432;51.226;6.904;2022-07-30T00:08:58;13.67;;;4.77;;
4835;SDS011;2432;51.226;6.904;2022-07-30T00:11:24;12.33;;;3.50;;
4835;SDS011;2432;51.226;6.904;2022-07-30T00:13:53;12.30;;;4.17;;
4835;SDS011;2432;51.226;6.904;2022-07-30T00:16:20;11.30;;;3.13;;
4835;SDS011;2432;51.226;6.904;2022-07-30T00:18:47;11.00;;;3.40;;
4835;SDS011;2432;51.226;6.904;2022-07-30T00:21:14;12.10;;;3.60;;
4835;SDS011;2432;51.226;6.904;2022-07-30T00:24:00;19.17;;;3.70;;
4835;SDS011;2432;51.226;6.904;2022-07-30T00:26:27;19.90;;;3.90;;
4835;SDS011;2432;51.226;6.904;2022-07-30T00:28:54;11.57;;;3.73;;
4835;SDS011;2432;51.226;6.904;2022-07-30T00:31:20;13.37;;;3.57;;
4835;SDS011;2432;51.226;6.904;2022-07-30T00:33:47;11.03;;;3.80;;
4835;SDS011;2432;51.226;6.904;2022-07-30T00:36:13;11.97;;;3.43;;
4835;SDS011;2432;51.226;6.904;2022-07-30T00:38:40;11.63;;;3.70;;
4835;SDS011;2432;51.226;6.904;2022-07-30T00:41:06;10.50;;;3.90;;
4835;SDS011;2432;51.226;6.904;2022-07-30T00:43:33;12.07;;;4.20;;
4835;SDS011;2432;51.226;6.904;2022-07-30T00:46:00;11.50;;;3.63;;
4835;SDS011;2432;51.226;6.904;2022-07-30T00:48:27;12.67;;;3.83;;
4835;SDS011;2432;51.226;6.904;2022-07-30T00:50:53;9.90;;;3.40;;
4835;SDS011;2432;51.226;6.904;2022-07-30T00:53:22;12.10;;;4.00;;
4835;SDS011;2432;51.226;6.904;2022-07-30T00:55:48;14.00;;;3.60;;
4835;SDS011;2432;51.226;6.904;2022-07-30T00:58:15;15.57;;;3.70;;
4835;SDS011;2432;51.226;6.904;2022-07-30T01:00:42;11.83;;;3.60;;
4835;SDS011;2432;51.226;6.904;2022-07-30T01:03:08;10.43;;;3.37;;
4835;SDS011;2432;51.226;6.904;2022-07-30T01:05:35;10.03;;;3.40;;
4835;SDS011;2432;51.226;6.904;2022-07-30T01:08:01;14.93;;;4.00;;
4835;SDS011;2432;51.226;6.904;2022-07-30T01:10:28;14.27;;;3.90;;
4835;SDS011;2432;51.226;6.904;2022-07-30T01:12:54;12.07;;;3.60;;
4835;SDS011;2432;51.226;6.904;2022-07-30T01:15:25;12.43;;;4.03;;
4835;SDS011;2432;51.226;6.904;2022-07-30T01:17:52;12.70;;;3.50;;
4835;SDS011;2432;51.226;6.904;2022-07-30T01:20:23;11.50;;;3.40;;
4835;SDS011;2432;51.226;6.904;2022-07-30T01:25:54;12.77;;;3.70;;
4835;SDS011;2432;51.226;6.904;2022-07-30T01:28:27;11.87;;;3.53;;
4835;SDS011;2432;51.226;6.904;2022-07-30T01:30:58;12.80;;;3.47;;
4835;SDS011;2432;51.226;6.904;2022-07-30T01:33:26;11.10;;;3.87;;
4835;SDS011;2432;51.226;6.904;2022-07-30T01:35:54;14.00;;;3.73;;
4835;SDS011;2432;51.226;6.904;2022-07-30T01:38:24;14.90;;;4.07;;
4835;SDS011;2432;51.226;6.904;2022-07-30T01:40:56;10.10;;;3.70;;
4835;SDS011;2432;51.226;6.904;2022-07-30T01:43:23;13.50;;;4.00;;
4835;SDS011;2432;51.226;6.904;2022-07-30T01:45:51;12.20;;;3.90;;
4835;SDS011;2432;51.226;6.904;2022-07-30T01:48:19;13.87;;;5.23;;
4835;SDS011;2432;51.226;6.904;2022-07-30T01:50:49;13.13;;;3.97;;
4835;SDS011;2432;51.226;6.904;2022-07-30T01:53:24;11.63;;;3.60;;
4835;SDS011;2432;51.226;6.904;2022-07-30T01:55:52;12.67;;;3.90;;
4835;SDS011;2432;51.226;6.904;2022-07-30T01:58:22;14.80;;;4.00;;
4835;SDS011;2432;51.226;6.904;2022-07-30T02:00:53;10.57;;;3.50;;
4835;SDS011;2432;51.226;6.904;2022-07-30T02:03:21;10.50;;;3.43;;
4835;SDS011;2432;51.226;6.904;2022-07-30T02:05:52;12.63;;;3.90;;
4835;SDS011;2432;51.226;6.904;2022-07-30T02:08:40;10.00;;;3.70;;
4835;SDS011;2432;51.226;6.904;2022-07-30T02:11:38;11.50;;;3.70;;
4835;SDS011;2432;51.226;6.904;2022-07-30T02:14:38;13.43;;;3.83;;
4835;SDS011;2432;51.226;6.904;2022-07-30T02:17:10;9.90;;;3.40;;
4835;SDS011;2432;51.226;6.904;2022-07-30T02:19:44;13.50;;;3.80;;
4835;SDS011;2432;51.226;6.904;2022-07-30T02:22:14;10.57;;;3.70;;
4835;SDS011;2432;51.226;6.904;2022-07-30T02:24:44;12.37;;;4.60;;
4835;SDS011;2432;51.226;6.904;2022-07-30T02:27:14;12.97;;;4.03;;
4835;SDS011;2432;51.226;6.904;2022-07-30T02:29:45;15.43;;;3.93;;
4835;SDS011;2432;51.226;6.904;2022-07-30T02:32:14;11.90;;;3.83;;
4835;SDS011;2432;51.226;6.904;2022-07-30T02:34:45;12.83;;;3.77;;
4835;SDS011;2432;51.226;6.904;2022-07-30T02:37:13;13.70;;;4.20;;
4835;SDS011;2432;51.226;6.904;2022-07-30T02:39:40;12.50;;;3.60;;
4835;SDS011;2432;51.226;6.904;2022-07-30T02:42:08;15.00;;;4.63;;
4835;SDS011;2432;51.226;6.904;2022-07-30T02:44:38;11.67;;;4.40;;
4835;SDS011;2432;51.226;6.904;2022-07-30T02:47:09;11.67;;;3.73;;
4835;SDS011;2432;51.226;6.904;2022-07-30T02:49:37;12.83;;;3.90;;
4835;SDS011;2432;51.226;6.904;2022-07-30T02:52:06;12.90;;;4.00;;
4835;SDS011;2432;51.226;6.904;2022-07-30T02:54:38;14.03;;;3.97;;
4835;SDS011;2432;51.226;6.904;2022-07-30T02:57:07;11.10;;;4.40;;
4835;SDS011;2432;51.226;6.904;2022-07-30T02:59:36;13.00;;;4.40;;
4835;SDS011;2432;51.226;6.904;2022-07-30T03:02:05;13.20;;;4.40;;
4835;SDS011;2432;51.226;6.904;2022-07-30T03:04:34;10.20;;;3.80;;
4835;SDS011;2432;51.226;6.904;2022-07-30T03:07:03;19.77;;;4.87;;
4835;SDS011;2432;51.226;6.904;2022-07-30T03:09:34;11.40;;;4.10;;
4835;SDS011;2432;51.226;6.904;2022-07-30T03:12:17;12.00;;;4.33;;
4835;SDS011;2432;51.226;6.904;2022-07-30T03:14:45;13.60;;;4.23;;
4835;SDS011;2432;51.226;6.904;2022-07-30T03:17:11;11.10;;;4.13;;
4835;SDS011;2432;51.226;6.904;2022-07-30T03:19:41;15.93;;;4.57;;
4835;SDS011;2432;51.226;6.904;2022-07-30T03:22:08;12.17;;;4.37;;
4835;SDS011;2432;51.226;6.904;2022-07-30T03:24:35;11.53;;;4.20;;
4835;SDS011;2432;51.226;6.904;2022-07-30T03:27:08;16.70;;;5.10;;
4835;SDS011;2432;51.226;6.904;2022-07-30T03:29:36;11.27;;;4.50;;
4835;SDS011;2432;51.226;6.904;2022-07-30T03:32:04;13.50;;;5.20;;
4835;SDS011;2432;51.226;6.904;2022-07-30T03:34:32;13.40;;;4.60;;
4835;SDS011;2432;51.226;6.904;2022-07-30T03:37:02;11.90;;;4.20;;
4835;SDS011;2432;51.226;6.904;2022-07-30T03:39:34;13.13;;;3.73;;
4835;SDS011;2432;51.226;6.904;2022-07-30T03:42:01;12.83;;;4.60;;
4835;SDS011;2432;51.226;6.904;2022-07-30T03:44:29;11.20;;;3.90;;
4835;SDS011;2432;51.226;6.904;2022-07-30T03:46:56;14.43;;;3.70;;
4835;SDS011;2432;51.226;6.904;2022-07-30T03:49:24;13.13;;;4.20;;
4835;SDS011;2432;51.226;6.904;2022-07-30T03:51:51;13.27;;;4.33;;
4835;SDS011;2432;51.226;6.904;2022-07-30T03:54:18;11.77;;;3.83;;
4835;SDS011;2432;51.226;6.904;2022-07-30T03:56:45;11.43;;;4.43;;
4835;SDS011;2432;51.226;6.904;2022-07-30T03:59:12;14.63;;;4.57;;
4835;SDS011;2432;51.226;6.904;2022-07-30T04:01:39;12.27;;;4.20;;
4835;SDS011;2432;51.226;6.904;2022-07-30T04:04:07;16.13;;;4.90;;
4835;SDS011;2432;51.226;6.904;2022-07-30T04:06:35;12.90;;;4.83;;
4835;SDS011;2432;51.226;6.904;2022-07-30T04:09:11;14.37;;;4.70;;
4835;SDS011;2432;51.226;6.904;2022-07-30T04:11:38;13.00;;;4.70;;
4835;SDS011;2432;51.226;6.904;2022-07-30T04:14:07;14.20;;;4.80;;
4835;SDS011;2432;51.226;6.904;2022-07-30T04:19:15;13.53;;;4.67;;
4835;SDS011;2432;51.226;6.904;2022-07-30T04:21:48;13.77;;;4.60;;
4835;SDS011;2432;51.226;6.904;2022-07-30T04:24:16;15.77;;;4.90;;
4835;SDS011;2432;51.226;6.904;2022-07-30T04:26:44;12.23;;;4.53;;
4835;SDS011;2432;51.226;6.904;2022-07-30T04:29:12;12.00;;;5.27;;
4835;SDS011;2432;51.226;6.904;2022-07-30T04:31:44;15.20;;;5.23;;
4835;SDS011;2432;51.226;6.904;2022-07-30T04:34:12;13.90;;;5.60;;
4835;SDS011;2432;51.226;6.904;2022-07-30T04:36:40;15.03;;;5.53;;
4835;SDS011;2432;51.226;6.904;2022-07-30T04:39:07;15.03;;;5.60;;
4835;SDS011;2432;51.226;6.904;2022-07-30T04:41:35;12.30;;;5.10;;
4835;SDS011;2432;51.226;6.904;2022-07-30T04:44:15;12.90;;;5.10;;
4835;SDS011;2432;51.226;6.904;2022-07-30T04:46:42;13.17;;;5.20;;
4835;SDS011;2432;51.226;6.904;2022-07-30T04:49:09;19.10;;;5.40;;
4835;SDS011;2432;51.226;6.904;2022-07-30T04:51:38;12.57;;;5.60;;
4835;SDS011;2432;51.226;6.904;2022-07-30T04:54:08;13.13;;;5.80;;
4835;SDS011;2432;51.226;6.904;2022-07-30T04:56:41;12.90;;;5.67;;
4835;SDS011;2432;51.226;6.904;2022-07-30T04:59:19;13.73;;;5.93;;
4835;SDS011;2432;51.226;6.904;2022-07-30T05:01:48;15.40;;;5.67;;
4835;SDS011;2432;51.226;6.904;2022-07-30T05:04:17;15.03;;;5.60;;
4835;SDS011;2432;51.226;6.904;2022-07-30T05:06:44;19.20;;;6.87;;
4835;SDS011;2432;51.226;6.904;2022-07-30T05:09:13;13.77;;;5.70;;
4835;SDS011;2432;51.226;6.904;2022-07-30T05:11:41;18.23;;;5.67;;
4835;SDS011;2432;51.226;6.904;2022-07-30T05:14:07;15.87;;;5.67;;
4835;SDS011;2432;51.226;6.904;2022-07-30T05:16:34;13.60;;;6.10;;
4835;SDS011;2432;51.226;6.904;2022-07-30T05:19:00;13.23;;;4.80;;
4835;SDS011;2432;51.226;6.904;2022-07-30T05:21:33;12.97;;;6.10;;
4835;SDS011;2432;51.226;6.904;2022-07-30T05:23:59;14.87;;;5.67;;
4835;SDS011;2432;51.226;6.904;2022-07-30T05:26:26;14.17;;;6.00;;
4835;SDS011;2432;51.226;6.904;2022-07-30T05:28:53;15.00;;;6.60;;
4835;SDS011;2432;51.226;6.904;2022-07-30T05:31:22;20.07;;;6.40;;
4835;SDS011;2432;51.226;6.904;2022-07-30T05:33:50;12.73;;;6.07;;
4835;SDS011;2432;51.226;6.904;2022-07-30T05:36:17;13.80;;;6.47;;
4835;SDS011;2432;51.226;6.904;2022-07-30T05:38:44;21.90;;;6.80;;
4835;SDS011;2432;51.226;6.904;2022-07-30T05:41:11;14.30;;;7.40;;
4835;SDS011;2432;51.226;6.904;2022-07-30T05:43:56;18.27;;;7.50;;
4835;SDS011;2432;51.226;6.904;2022-07-30T05:46:23;16.70;;;8.40;;
4835;SDS011;2432;51.226;6.904;2022-07-30T05:48:50;18.33;;;8.90;;
4835;SDS011;2432;51.226;6.904;2022-07-30T05:51:16;23.03;;;9.73;;
4835;SDS011;2432;51.226;6.904;2022-07-30T05:53:45;24.07;;;10.37;;
4835;SDS011;2432;51.226;6.904;2022-07-30T05:56:11;25.07;;;11.87;;
4835;SDS011;2432;51.226;6.904;2022-07-30T05:58:38;22.90;;;11.50;;
4835;SDS011;2432;51.226;6.904;2022-07-30T06:01:04;24.00;;;12.60;;
4835;SDS011;2432;51.226;6.904;2022-07-30T06:03:31;27.90;;;12.40;;
4835;SDS011;2432;51.226;6.904;2022-07-30T06:05:59;21.87;;;12.50;;
4835;SDS011;2432;51.226;6.904;2022-07-30T06:08:25;26.13;;;13.03;;
4835;SDS011;2432;51.226;6.904;2022-07-30T06:10:52;23.43;;;13.03;;
4835;SDS011;2432;51.226;6.904;2022-07-30T06:13:18;29.37;;;16.70;;
4835;SDS011;2432;51.226;6.904;2022-07-30T06:15:45;46.93;;;23.80;;
4835;SDS011;2432;51.226;6.904;2022-07-30T06:18:11;41.10;;;19.93;;
4835;SDS011;2432;51.226;6.904;2022-07-30T06:20:40;38.97;;;20.80;;
4835;SDS011;2432;51.226;6.904;2022-07-30T06:23:07;45.30;;;24.07;;
4835;SDS011;2432;51.226;6.904;2022-07-30T06:25:33;42.50;;;23.00;;
4835;SDS011;2432;51.226;6.904;2022-07-30T06:28:04;49.17;;;24.87;;
4835;SDS011;2432;51.226;6.904;2022-07-30T06:30:50;61.53;;;28.57;;
4835;SDS011;2432;51.226;6.904;2022-07-30T06:33:17;66.77;;;32.87;;
4835;SDS011;2432;51.226;6.904;2022-07-30T06:35:43;64.30;;;34.40;;
4835;SDS011;2432;51.226;6.904;2022-07-30T06:38:10;70.67;;;38.93;;
4835;SDS011;2432;51.226;6.904;2022-07-30T06:40:37;76.47;;;41.10;;
4835;SDS011;2432;51.226;6.904;2022-07-30T06:43:04;71.30;;;37.67;;
4835;SDS011;2432;51.226;6.904;2022-07-30T06:45:31;71.57;;;37.47;;
4835;SDS011;2432;51.226;6.904;2022-07-30T06:47:57;71.50;;;39.10;;
4835;SDS011;2432;51.226;6.904;2022-07-30T06:50:25;74.67;;;38.17;;
4835;SDS011;2432;51.226;6.904;2022-07-30T06:52:51;73.73;;;39.27;;
4835;SDS011;2432;51.226;6.904;2022-07-30T06:55:18;72.37;;;39.30;;
4835;SDS011;2432;51.226;6.904;2022-07-30T06:57:44;72.77;;;37.43;;
4835;SDS011;2432;51.226;6.904;2022-07-30T07:00:11;62.23;;;37.07;;
4835;SDS011;2432;51.226;6.904;2022-07-30T07:02:38;61.40;;;34.40;;
4835;SDS011;2432;51.226;6.904;2022-07-30T07:05:04;60.33;;;33.17;;
4835;SDS011;2432;51.226;6.904;2022-07-30T07:07:33;58.67;;;31.03;;
4835;SDS011;2432;51.226;6.904;2022-07-30T07:10:08;54.70;;;30.60;;
4835;SDS011;2432;51.226;6.904;2022-07-30T07:12:35;46.80;;;28.53;;
4835;SDS011;2432;51.226;6.904;2022-07-30T07:15:01;45.23;;;26.27;;
4835;SDS011;2432;51.226;6.904;2022-07-30T07:17:28;40.60;;;25.17;;
4835;SDS011;2432;51.226;6.904;2022-07-30T07:19:54;42.10;;;25.60;;
4835;SDS011;2432;51.226;6.904;2022-07-30T07:22:27;43.53;;;24.57;;
4835;SDS011;2432;51.226;6.904;2022-07-30T07:24:54;42.17;;;26.23;;
4835;SDS011;2432;51.226;6.904;2022-07-30T07:27:20;39.53;;;23.50;;
4835;SDS011;2432;51.226;6.904;2022-07-30T07:29:47;41.80;;;23.97;;
4835;SDS011;2432;51.226;6.904;2022-07-30T07:32:31;49.27;;;23.37;;
4835;SDS011;2432;51.226;6.904;2022-07-30T07:34:57;39.30;;;23.23;;
4835;SDS011;2432;51.226;6.904;2022-07-30T07:37:24;35.50;;;23.60;;
4835;SDS011;2432;51.226;6.904;2022-07-30T07:39:50;37.50;;;23.93;;
4835;SDS011;2432;51.226;6.904;2022-07-30T07:42:17;39.17;;;20.90;;
4835;SDS011;2432;51.226;6.904;2022-07-30T07:44:43;39.10;;;21.77;;
4835;SDS011;2432;51.226;6.904;2022-07-30T07:47:10;39.20;;;20.80;;
4835;SDS011;2432;51.226;6.904;2022-07-30T07:49:36;33.00;;;20.60;;
4835;SDS011;2432;51.226;6.904;2022-07-30T07:52:03;35.10;;;21.00;;
4835;SDS011;2432;51.226;6.904;2022-07-30T07:54:30;35.43;;;20.10;;
4835;SDS011;2432;51.226;6.904;2022-07-30T07:56:56;32.57;;;20.77;;
4835;SDS011;2432;51.226;6.904;2022-07-30T07:59:25;33.73;;;19.40;;
4835;SDS011;2432;51.226;6.904;2022-07-30T08:02:05;27.87;;;18.10;;
4835;SDS011;2432;51.226;6.904;2022-07-30T08:04:33;32.60;;;18.17;;
4835;SDS011;2432;51.226;6.904;2022-07-30T08:07:00;33.03;;;19.10;;
4835;SDS011;2432;51.226;6.904;2022-07-30T08:09:28;32.03;;;18.47;;
4835;SDS011;2432;51.226;6.904;2022-07-30T08:12:09;37.30;;;18.67;;
4835;SDS011;2432;51.226;6.904;2022-07-30T08:14:36;35.07;;;18.40;;
4835;SDS011;2432;51.226;6.904;2022-07-30T08:17:03;34.27;;;18.27;;
4835;SDS011;2432;51.226;6.904;2022-07-30T08:19:30;31.77;;;17.60;;
4835;SDS011;2432;51.226;6.904;2022-07-30T08:21:56;31.47;;;18.73;;
4835;SDS011;2432;51.226;6.904;2022-07-30T08:24:24;26.30;;;17.83;;
4835;SDS011;2432;51.226;6.904;2022-07-30T08:26:51;29.87;;;17.17;;
4835;SDS011;2432;51.226;6.904;2022-07-30T08:29:18;30.10;;;16.07;;
4835;SDS011;2432;51.226;6.904;2022-07-30T08:31:44;29.37;;;15.53;;
4835;SDS011;2432;51.226;6.904;2022-07-30T08:34:11;26.07;;;14.50;;
4835;SDS011;2432;51.226;6.904;2022-07-30T08:36:38;30.33;;;16.70;;
4835;SDS011;2432;51.226;6.904;2022-07-30T08:39:05;26.27;;;15.60;;
4835;SDS011;2432;51.226;6.904;2022-07-30T08:41:31;25.60;;;14.00;;
4835;SDS011;2432;51.226;6.904;2022-07-30T08:43:59;28.47;;;14.00;;
4835;SDS011;2432;51.226;6.904;2022-07-30T08:46:27;30.23;;;14.20;;
4835;SDS011;2432;51.226;6.904;2022-07-30T08:48:56;25.40;;;14.27;;
4835;SDS011;2432;51.226;6.904;2022-07-30T08:51:34;25.93;;;12.90;;
4835;SDS011;2432;51.226;6.904;2022-07-30T08:54:02;27.37;;;14.30;;
4835;SDS011;2432;51.226;6.904;2022-07-30T08:56:28;24.83;;;14.20;;
4835;SDS011;2432;51.226;6.904;2022-07-30T08:58:57;30.90;;;13.07;;
4835;SDS011;2432;51.226;6.904;2022-07-30T09:01:25;27.47;;;13.20;;
4835;SDS011;2432;51.226;6.904;2022-07-30T09:03:51;23.70;;;13.27;;
4835;SDS011;2432;51.226;6.904;2022-07-30T09:06:18;27.07;;;13.40;;
4835;SDS011;2432;51.226;6.904;2022-07-30T09:08:44;26.43;;;13.40;;
4835;SDS011;2432;51.226;6.904;2022-07-30T09:11:11;23.10;;;13.30;;
4835;SDS011;2432;51.226;6.904;2022-07-30T09:13:38;25.20;;;12.37;;
4835;SDS011;2432;51.226;6.904;2022-07-30T09:16:19;23.73;;;11.57;;
4835;SDS011;2432;51.226;6.904;2022-07-30T09:18:51;23.40;;;10.60;;
4835;SDS011;2432;51.226;6.904;2022-07-30T09:21:22;22.77;;;10.23;;
4835;SDS011;2432;51.226;6.904;2022-07-30T09:26:20;22.93;;;11.27;;
4835;SDS011;2432;51.226;6.904;2022-07-30T09:28:46;25.87;;;11.83;;
4835;SDS011;2432;51.226;6.904;2022-07-30T09:31:13;20.57;;;11.63;;
4835;SDS011;2432;51.226;6.904;2022-07-30T09:33:41;19.93;;;10.90;;
4835;SDS011;2432;51.226;6.904;2022-07-30T09:36:13;27.40;;;9.63;;
4835;SDS011;2432;51.226;6.904;2022-07-30T09:38:42;22.13;;;9.03;;
4835;SDS011;2432;51.226;6.904;2022-07-30T09:41:09;21.93;;;7.33;;
4835;SDS011;2432;51.226;6.904;2022-07-30T09:43:56;28.90;;;8.43;;
4835;SDS011;2432;51.226;6.904;2022-07-30T09:46:36;20.37;;;9.30;;
4835;SDS011;2432;51.226;6.904;2022-07-30T09:49:16;21.43;;;8.40;;
4835;SDS011;2432;51.226;6.904;2022-07-30T09:51:44;18.90;;;8.47;;
4835;SDS011;2432;51.226;6.904;2022-07-30T09:54:22;25.07;;;9.20;;
4835;SDS011;2432;51.226;6.904;2022-07-30T09:57:17;20.93;;;8.10;;
4835;SDS011;2432;51.226;6.904;2022-07-30T10:00:22;20.97;;;7.37;;
4835;SDS011;2432;51.226;6.904;2022-07-30T10:02:52;23.23;;;7.27;;
4835;SDS011;2432;51.226;6.904;2022-07-30T10:05:19;19.73;;;7.87;;
4835;SDS011;2432;51.226;6.904;2022-07-30T10:07:55;21.67;;;7.67;;
4835;SDS011;2432;51.226;6.904;2022-07-30T10:10:29;16.33;;;6.50;;
4835;SDS011;2432;51.226;6.904;2022-07-30T10:13:00;16.13;;;5.93;;
4835;SDS011;2432;51.226;6.904;2022-07-30T10:15:30;20.67;;;6.57;;
4835;SDS011;2432;51.226;6.904;2022-07-30T10:18:00;20.80;;;7.00;;
4835;SDS011;2432;51.226;6.904;2022-07-30T10:20:31;21.73;;;7.23;;
4835;SDS011;2432;51.226;6.904;2022-07-30T10:23:00;17.73;;;7.43;;
4835;SDS011;2432;51.226;6.904;2022-07-30T10:25:33;15.60;;;6.00;;
4835;SDS011;2432;51.226;6.904;2022-07-30T10:28:01;25.30;;;7.77;;
4835;SDS011;2432;51.226;6.904;2022-07-30T10:30:29;16.93;;;6.20;;
4835;SDS011;2432;51.226;6.904;2022-07-30T10:32:57;18.00;;;6.20;;
4835;SDS011;2432;51.226;6.904;2022-07-30T10:35:26;17.50;;;6.00;;
4835;SDS011;2432;51.226;6.904;2022-07-30T10:38:03;16.03;;;5.20;;
4835;SDS011;2432;51.226;6.904;2022-07-30T10:40:59;16.07;;;5.73;;
4835;SDS011;2432;51.226;6.904;2022-07-30T10:43:44;21.63;;;4.43;;
4835;SDS011;2432;51.226;6.904;2022-07-30T10:46:48;14.77;;;4.20;;
4835;SDS011;2432;51.226;6.904;2022-07-30T10:49:23;17.00;;;4.73;;
4835;SDS011;2432;51.226;6.904;2022-07-30T10:51:51;14.30;;;4.93;;
4835;SDS011;2432;51.226;6.904;2022-07-30T10:57:09;12.33;;;3.83;;
4835;SDS011;2432;51.226;6.904;2022-07-30T11:02:22;12.63;;;4.00;;
4835;SDS011;2432;51.226;6.904;2022-07-30T11:07:43;12.50;;;3.30;;
4835;SDS011;2432;51.226;6.904;2022-07-30T11:10:46;12.63;;;2.97;;
4835;SDS011;2432;51.226;6.904;2022-07-30T11:13:09;13.47;;;4.03;;
4835;SDS011;2432;51.226;6.904;2022-07-30T11:18:23;15.50;;;3.90;;
4835;SDS011;2432;51.226;6.904;2022-07-30T11:21:14;14.37;;;3.43;;
4835;SDS011;2432;51.226;6.904;2022-07-30T11:23:47;12.57;;;3.83;;
4835;SDS011;2432;51.226;6.904;2022-07-30T11:29:06;10.60;;;2.40;;
4835;SDS011;2432;51.226;6.904;2022-07-30T11:32:22;14.17;;;3.13;;
4835;SDS011;2432;51.226;6.904;2022-07-30T11:37:59;10.03;;;2.90;;
4835;SDS011;2432;51.226;6.904;2022-07-30T11:45:44;10.03;;;3.20;;
4835;SDS011;2432;51.226;6.904;2022-07-30T11:48:12;13.30;;;3.13;;
4835;SDS011;2432;51.226;6.904;2022-07-30T11:50:41;11.43;;;3.13;;
4835;SDS011;2432;51.226;6.904;2022-07-30T11:53:12;12.33;;;2.60;;
4835;SDS011;2432;51.226;6.904;2022-07-30T11:55:57;10.57;;;2.93;;
4835;SDS011;2432;51.226;6.904;2022-07-30T11:58:29;10.17;;;2.57;;
4835;SDS011;2432;51.226;6.904;2022-07-30T12:00:58;11.80;;;2.53;;
4835;SDS011;2432;51.226;6.904;2022-07-30T12:03:37;10.50;;;3.23;;
4835;SDS011;2432;51.226;6.904;2022-07-30T12:06:07;9.87;;;2.20;;
4835;SDS011;2432;51.226;6.904;2022-07-30T12:08:38;11.60;;;2.40;;
4835;SDS011;2432;51.226;6.904;2022-07-30T12:11:06;10.83;;;2.90;;
4835;SDS011;2432;51.226;6.904;2022-07-30T12:13:33;12.97;;;3.30;;
4835;SDS011;2432;51.226;6.904;2022-07-30T12:16:14;13.10;;;3.30;;
4835;SDS011;2432;51.226;6.904;2022-07-30T12:18:42;14.40;;;3.80;;
4835;SDS011;2432;51.226;6.904;2022-07-30T12:21:09;9.80;;;3.10;;
4835;SDS011;2432;51.226;6.904;2022-07-30T12:23:37;11.30;;;3.00;;
4835;SDS011;2432;51.226;6.904;2022-07-30T12:26:04;14.03;;;3.00;;
4835;SDS011;2432;51.226;6.904;2022-07-30T12:28:31;9.67;;;2.80;;
4835;SDS011;2432;51.226;6.904;2022-07-30T12:31:00;13.10;;;3.10;;
4835;SDS011;2432;51.226;6.904;2022-07-30T12:33:29;11.18;;;2.80;;
4835;SDS011;2432;51.226;6.904;2022-07-30T12:35:57;11.40;;;2.83;;
4835;SDS011;2432;51.226;6.904;2022-07-30T12:38:26;14.30;;;3.97;;
4835;SDS011;2432;51.226;6.904;2022-07-30T12:41:01;12.33;;;2.70;;
4835;SDS011;2432;51.226;6.904;2022-07-30T12:43:46;13.10;;;2.80;;
4835;SDS011;2432;51.226;6.904;2022-07-30T12:46:23;15.03;;;4.00;;
4835;SDS011;2432;51.226;6.904;2022-07-30T12:51:50;16.10;;;3.00;;
4835;SDS011;2432;51.226;6.904;2022-07-30T12:54:25;11.30;;;2.67;;
4835;SDS011;2432;51.226;6.904;2022-07-30T12:59:24;12.20;;;2.93;;
4835;SDS011;2432;51.226;6.904;2022-07-30T13:01:52;9.33;;;2.47;;
4835;SDS011;2432;51.226;6.904;2022-07-30T13:04:19;16.23;;;2.70;;
4835;SDS011;2432;51.226;6.904;2022-07-30T13:07:02;10.00;;;2.60;;
4835;SDS011;2432;51.226;6.904;2022-07-30T13:09:33;13.13;;;2.77;;
4835;SDS011;2432;51.226;6.904;2022-07-30T13:12:00;9.80;;;2.10;;
4835;SDS011;2432;51.226;6.904;2022-07-30T13:14:27;10.63;;;2.47;;
4835;SDS011;2432;51.226;6.904;2022-07-30T13:16:54;10.87;;;2.60;;
4835;SDS011;2432;51.226;6.904;2022-07-30T13:19:22;11.37;;;2.50;;
4835;SDS011;2432;51.226;6.904;2022-07-30T13:21:49;11.83;;;2.40;;
4835;SDS011;2432;51.226;6.904;2022-07-30T13:24:16;11.03;;;2.27;;
4835;SDS011;2432;51.226;6.904;2022-07-30T13:26:44;11.17;;;2.93;;
4835;SDS011;2432;51.226;6.904;2022-07-30T13:29:11;9.13;;;2.07;;
4835;SDS011;2432;51.226;6.904;2022-07-30T13:31:39;10.07;;;2.20;;
4835;SDS011;2432;51.226;6.904;2022-07-30T13:34:09;12.30;;;2.30;;
4835;SDS011;2432;51.226;6.904;2022-07-30T13:36:45;12.43;;;2.00;;
4835;SDS011;2432;51.226;6.904;2022-07-30T13:39:11;9.20;;;2.33;;
4835;SDS011;2432;51.226;6.904;2022-07-30T13:41:38;11.10;;;2.63;;
4835;SDS011;2432;51.226;6.904;2022-07-30T13:44:06;9.37;;;2.00;;
4835;SDS011;2432;51.226;6.904;2022-07-30T13:46:33;11.10;;;2.40;;
4835;SDS011;2432;51.226;6.904;2022-07-30T13:49:02;8.63;;;2.13;;
4835;SDS011;2432;51.226;6.904;2022-07-30T13:51:30;9.50;;;2.13;;
4835;SDS011;2432;51.226;6.904;2022-07-30T13:53:59;7.90;;;1.53;;
4835;SDS011;2432;51.226;6.904;2022-07-30T13:56:25;10.23;;;2.20;;
4835;SDS011;2432;51.226;6.904;2022-07-30T13:58:52;9.43;;;1.83;;
4835;SDS011;2432;51.226;6.904;2022-07-30T14:01:19;12.87;;;3.03;;
4835;SDS011;2432;51.226;6.904;2022-07-30T14:03:46;9.37;;;1.83;;
4835;SDS011;2432;51.226;6.904;2022-07-30T14:06:16;7.50;;;1.60;;
4835;SDS011;2432;51.226;6.904;2022-07-30T14:08:45;8.73;;;1.73;;
4835;SDS011;2432;51.226;6.904;2022-07-30T14:11:12;9.57;;;1.70;;
4835;SDS011;2432;51.226;6.904;2022-07-30T14:13:39;8.63;;;2.27;;
4835;SDS011;2432;51.226;6.904;2022-07-30T14:16:05;8.70;;;1.80;;
4835;SDS011;2432;51.226;6.904;2022-07-30T14:18:52;9.13;;;1.90;;
4835;SDS011;2432;51.226;6.904;2022-07-30T14:21:18;9.07;;;1.80;;
4835;SDS011;2432;51.226;6.904;2022-07-30T14:23:45;10.00;;;2.03;;
4835;SDS011;2432;51.226;6.904;2022-07-30T14:26:11;9.37;;;2.03;;
4835;SDS011;2432;51.226;6.904;2022-07-30T14:28:39;8.80;;;1.80;;
4835;SDS011;2432;51.226;6.904;2022-07-30T14:31:05;8.03;;;1.77;;
4835;SDS011;2432;51.226;6.904;2022-07-30T14:33:32;11.17;;;1.60;;
4835;SDS011;2432;51.226;6.904;2022-07-30T14:35:59;13.87;;;1.97;;
4835;SDS011;2432;51.226;6.904;2022-07-30T14:38:25;9.63;;;2.00;;
4835;SDS011;2432;51.226;6.904;2022-07-30T14:40:52;10.13;;;1.70;;
4835;SDS011;2432;51.226;6.904;2022-07-30T14:43:18;9.10;;;1.80;;
4835;SDS011;2432;51.226;6.904;2022-07-30T14:45:45;9.23;;;1.80;;
4835;SDS011;2432;51.226;6.904;2022-07-30T14:48:15;9.77;;;1.87;;
4835;SDS011;2432;51.226;6.904;2022-07-30T14:50:42;10.70;;;2.10;;
4835;SDS011;2432;51.226;6.904;2022-07-30T14:53:29;8.50;;;1.97;;
4835;SDS011;2432;51.226;6.904;2022-07-30T14:55:56;13.90;;;1.80;;
4835;SDS011;2432;51.226;6.904;2022-07-30T14:58:23;8.37;;;1.73;;
4835;SDS011;2432;51.226;6.904;2022-07-30T15:00:50;9.70;;;1.93;;
4835;SDS011;2432;51.226;6.904;2022-07-30T15:03:16;10.53;;;2.17;;
4835;SDS011;2432;51.226;6.904;2022-07-30T15:05:45;14.20;;;2.83;;
4835;SDS011;2432;51.226;6.904;2022-07-30T15:08:17;9.13;;;1.73;;
4835;SDS011;2432;51.226;6.904;2022-07-30T15:10:44;8.83;;;1.90;;
4835;SDS011;2432;51.226;6.904;2022-07-30T15:13:11;10.10;;;1.90;;
4835;SDS011;2432;51.226;6.904;2022-07-30T15:15:39;9.40;;;1.90;;
4835;SDS011;2432;51.226;6.904;2022-07-30T15:18:08;10.63;;;2.00;;
4835;SDS011;2432;51.226;6.904;2022-07-30T15:20:35;14.83;;;2.10;;
4835;SDS011;2432;51.226;6.904;2022-07-30T15:23:02;9.50;;;1.90;;
4835;SDS011;2432;51.226;6.904;2022-07-30T15:25:28;8.47;;;1.87;;
4835;SDS011;2432;51.226;6.904;2022-07-30T15:27:55;14.07;;;2.10;;
4835;SDS011;2432;51.226;6.904;2022-07-30T15:30:21;10.70;;;2.60;;
4835;SDS011;2432;51.226;6.904;2022-07-30T15:32:50;10.37;;;2.67;;
4835;SDS011;2432;51.226;6.904;2022-07-30T15:35:16;11.23;;;2.10;;
4835;SDS011;2432;51.226;6.904;2022-07-30T15:37:43;10.63;;;2.20;;
4835;SDS011;2432;51.226;6.904;2022-07-30T15:40:09;13.20;;;1.77;;
4835;SDS011;2432;51.226;6.904;2022-07-30T15:42:36;10.93;;;1.80;;
4835;SDS011;2432;51.226;6.904;2022-07-30T15:45:03;12.93;;;2.13;;
4835;SDS011;2432;51.226;6.904;2022-07-30T15:47:43;8.87;;;1.87;;
4835;SDS011;2432;51.226;6.904;2022-07-30T15:50:10;8.30;;;1.90;;
4835;SDS011;2432;51.226;6.904;2022-07-30T15:52:36;10.87;;;1.97;;